createdAt,value
2023-06-25T00:00:05.071Z,3.30
2023-06-25T00:02:33.619Z,3.10
2023-06-25T00:05:00.812Z,3.10
2023-06-25T00:07:28.086Z,3.28
2023-06-25T00:09:56.608Z,3.20
2023-06-25T00:12:24.018Z,3.30
2023-06-25T00:14:51.159Z,3.35
2023-06-25T00:17:18.437Z,3.15
2023-06-25T00:19:47.191Z,3.15
2023-06-25T00:22:14.393Z,3.38
2023-06-25T00:24:42.001Z,3.10
2023-06-25T00:27:09.163Z,3.13
2023-06-25T00:29:36.297Z,3.33
2023-06-25T00:32:03.749Z,3.15
2023-06-25T00:34:30.870Z,3.75
2023-06-25T00:36:59.720Z,3.53
2023-06-25T00:39:26.854Z,3.35
2023-06-25T00:41:53.999Z,3.40
2023-06-25T00:44:21.270Z,3.30
2023-06-25T00:46:48.490Z,3.60
2023-06-25T00:49:15.618Z,3.30
2023-06-25T00:51:43.011Z,3.58
2023-06-25T00:54:11.904Z,3.40
2023-06-25T00:56:39.086Z,3.80
2023-06-25T00:59:06.298Z,3.15
2023-06-25T01:01:42.809Z,3.22
2023-06-25T01:04:14.101Z,3.25
2023-06-25T01:06:47.484Z,3.25
2023-06-25T01:09:18.122Z,2.95
2023-06-25T01:11:48.325Z,3.53
2023-06-25T01:14:15.424Z,2.90
2023-06-25T01:16:42.537Z,3.90
2023-06-25T01:19:09.866Z,3.22
2023-06-25T01:21:38.806Z,3.38
2023-06-25T01:24:08.076Z,3.28
2023-06-25T01:26:35.225Z,3.33
2023-06-25T01:29:02.369Z,3.30
2023-06-25T01:31:29.509Z,3.20
2023-06-25T01:33:56.683Z,3.45
2023-06-25T01:36:23.779Z,3.28
2023-06-25T01:38:50.879Z,3.08
2023-06-25T01:41:19.623Z,3.50
2023-06-25T01:43:46.744Z,3.67
2023-06-25T01:46:13.875Z,3.20
2023-06-25T01:48:41.031Z,3.40
2023-06-25T01:51:08.189Z,3.17
2023-06-25T01:53:35.316Z,3.25
2023-06-25T01:56:02.475Z,3.28
2023-06-25T01:58:30.928Z,3.85
2023-06-25T02:00:58.073Z,3.20
2023-06-25T02:03:25.710Z,3.00
2023-06-25T02:05:53.062Z,3.00
2023-06-25T02:08:20.172Z,3.20
2023-06-25T02:10:47.394Z,3.10
2023-06-25T02:13:14.542Z,3.25
2023-06-25T02:15:43.132Z,3.22
2023-06-25T02:18:10.303Z,3.53
2023-06-25T02:20:37.470Z,3.30
2023-06-25T02:23:04.589Z,3.30
2023-06-25T02:25:31.741Z,3.42
2023-06-25T02:27:58.871Z,3.50
2023-06-25T02:30:26.014Z,3.40
2023-06-25T02:32:54.633Z,3.17
2023-06-25T02:35:21.826Z,3.10
2023-06-25T02:37:48.977Z,3.28
2023-06-25T02:40:16.186Z,3.17
2023-06-25T02:42:44.261Z,3.45
2023-06-25T02:45:11.674Z,3.35
2023-06-25T02:47:38.856Z,3.33
2023-06-25T02:50:08.455Z,3.15
2023-06-25T02:52:35.594Z,3.38
2023-06-25T02:55:02.903Z,3.00
2023-06-25T02:57:30.008Z,3.28
2023-06-25T02:59:57.397Z,3.10
2023-06-25T03:02:24.930Z,2.90
2023-06-25T03:04:52.237Z,3.33
2023-06-25T03:07:20.766Z,3.17
2023-06-25T03:09:48.250Z,3.53
2023-06-25T03:12:15.452Z,3.08
2023-06-25T03:14:42.854Z,3.30
2023-06-25T03:17:10.029Z,3.53
2023-06-25T03:19:37.441Z,3.08
2023-06-25T03:22:05.163Z,3.50
2023-06-25T03:24:34.529Z,3.20
2023-06-25T03:27:02.267Z,3.03
2023-06-25T03:29:29.404Z,3.33
2023-06-25T03:31:56.537Z,3.45
2023-06-25T03:34:23.637Z,2.97
2023-06-25T03:36:50.771Z,3.00
2023-06-25T03:39:17.903Z,3.35
2023-06-25T03:41:46.362Z,3.08
2023-06-25T03:44:13.562Z,3.10
2023-06-25T03:46:40.722Z,3.50
2023-06-25T03:49:07.831Z,3.20
2023-06-25T03:51:34.950Z,3.42
2023-06-25T03:54:02.094Z,3.25
2023-06-25T03:56:29.199Z,3.08
2023-06-25T03:58:57.714Z,3.08
2023-06-25T04:01:24.926Z,3.40
2023-06-25T04:03:52.139Z,3.40
2023-06-25T04:06:19.284Z,3.17
2023-06-25T04:08:46.418Z,3.50
2023-06-25T04:11:13.568Z,3.30
2023-06-25T04:13:40.682Z,3.50
2023-06-25T04:16:09.231Z,3.42
2023-06-25T04:18:36.375Z,3.30
2023-06-25T04:21:03.637Z,3.10
2023-06-25T04:23:30.792Z,3.10
2023-06-25T04:25:57.941Z,3.08
2023-06-25T04:28:25.044Z,3.17
2023-06-25T04:30:52.258Z,3.67
2023-06-25T04:33:20.733Z,3.35
2023-06-25T04:35:48.080Z,3.03
2023-06-25T04:38:15.202Z,3.88
2023-06-25T04:40:42.346Z,3.58
2023-06-25T04:43:09.472Z,3.15
2023-06-25T04:45:36.779Z,2.95
2023-06-25T04:48:04.515Z,3.15
2023-06-25T04:50:33.018Z,3.40
2023-06-25T04:53:01.579Z,3.35
2023-06-25T04:55:29.505Z,3.28
2023-06-25T04:57:56.911Z,3.42
2023-06-25T05:00:24.100Z,3.20
2023-06-25T05:02:51.266Z,3.00
2023-06-25T05:05:18.649Z,3.42
2023-06-25T05:07:47.171Z,3.75
2023-06-25T05:10:15.387Z,3.20
2023-06-25T05:12:42.519Z,3.20
2023-06-25T05:15:10.587Z,2.97
2023-06-25T05:17:37.716Z,3.20
2023-06-25T05:20:06.042Z,2.97
2023-06-25T05:22:33.385Z,3.40
2023-06-25T05:25:01.879Z,2.95
2023-06-25T05:27:29.068Z,3.05
2023-06-25T05:29:56.191Z,3.08
2023-06-25T05:32:23.313Z,3.40
2023-06-25T05:34:50.405Z,3.30
2023-06-25T05:37:17.583Z,3.33
2023-06-25T05:39:44.729Z,3.33
2023-06-25T05:42:13.245Z,3.42
2023-06-25T05:44:40.917Z,3.35
2023-06-25T05:47:08.136Z,3.22
2023-06-25T05:49:35.247Z,3.58
2023-06-25T05:52:02.392Z,3.80
2023-06-25T05:54:29.510Z,3.58
2023-06-25T05:56:56.659Z,3.58
2023-06-25T05:59:25.154Z,3.10
2023-06-25T06:01:52.283Z,3.35
2023-06-25T06:04:20.831Z,3.22
2023-06-25T06:06:48.437Z,3.50
2023-06-25T06:09:15.566Z,3.30
2023-06-25T06:11:42.678Z,3.10
2023-06-25T06:14:09.816Z,3.58
2023-06-25T06:16:38.295Z,3.20
2023-06-25T06:19:05.410Z,3.30
2023-06-25T06:21:32.558Z,3.38
2023-06-25T06:23:59.659Z,3.10
2023-06-25T06:26:26.810Z,3.17
2023-06-25T06:28:54.600Z,3.55
2023-06-25T06:31:22.262Z,3.40
2023-06-25T06:33:50.893Z,3.50
2023-06-25T06:36:18.045Z,3.30
2023-06-25T06:38:45.159Z,3.60
2023-06-25T06:41:12.292Z,3.50
2023-06-25T06:43:39.445Z,3.25
2023-06-25T06:46:08.566Z,3.28
2023-06-25T06:48:36.063Z,3.10
2023-06-25T06:51:04.622Z,3.47
2023-06-25T06:53:31.728Z,3.25
2023-06-25T06:55:58.835Z,3.42
2023-06-25T06:58:25.987Z,3.60
2023-06-25T07:00:53.167Z,3.53
2023-06-25T07:03:20.318Z,3.70
2023-06-25T07:05:47.506Z,3.25
2023-06-25T07:08:16.083Z,3.30
2023-06-25T07:10:43.201Z,3.10
2023-06-25T07:13:10.352Z,3.55
2023-06-25T07:15:37.777Z,4.05
2023-06-25T07:18:05.231Z,3.42
2023-06-25T07:20:32.430Z,3.40
2023-06-25T07:22:59.569Z,3.40
2023-06-25T07:25:28.062Z,3.72
2023-06-25T07:27:55.287Z,3.25
2023-06-25T07:30:22.714Z,3.08
2023-06-25T07:32:49.996Z,3.22
2023-06-25T07:35:17.146Z,3.35
2023-06-25T07:37:44.262Z,3.40
2023-06-25T07:40:12.093Z,2.90
2023-06-25T07:42:40.651Z,3.42
2023-06-25T07:45:09.044Z,3.45
2023-06-25T07:47:36.360Z,3.63
2023-06-25T07:50:04.077Z,3.47
2023-06-25T07:52:31.280Z,3.30
2023-06-25T07:54:58.573Z,3.35
2023-06-25T07:57:25.742Z,3.35
2023-06-25T07:59:54.620Z,3.65
2023-06-25T08:02:22.701Z,3.50
2023-06-25T08:04:50.944Z,3.22
2023-06-25T08:07:18.473Z,3.72
2023-06-25T08:09:45.957Z,3.47
2023-06-25T08:12:13.337Z,3.40
2023-06-25T08:14:40.464Z,3.40
2023-06-25T08:17:09.009Z,3.33
2023-06-25T08:19:36.170Z,3.45
2023-06-25T08:22:03.541Z,3.38
2023-06-25T08:24:30.748Z,3.58
2023-06-25T08:26:57.936Z,3.50
2023-06-25T08:29:25.349Z,3.13
2023-06-25T08:31:54.157Z,3.42
2023-06-25T08:34:23.409Z,3.50
2023-06-25T08:36:50.552Z,3.15
2023-06-25T08:39:17.704Z,3.78
2023-06-25T08:41:45.050Z,3.35
2023-06-25T08:44:12.391Z,3.72
2023-06-25T08:46:46.722Z,3.38
2023-06-25T08:49:13.920Z,3.22
2023-06-25T08:51:42.634Z,3.20
2023-06-25T08:54:10.077Z,3.35
2023-06-25T08:56:37.233Z,3.53
2023-06-25T08:59:04.392Z,3.60
2023-06-25T09:01:31.710Z,3.50
2023-06-25T09:03:58.891Z,3.47
2023-06-25T09:06:26.072Z,3.58
2023-06-25T09:08:54.621Z,3.67
2023-06-25T09:11:21.770Z,3.28
2023-06-25T09:13:49.026Z,3.78
2023-06-25T09:16:16.209Z,3.80
2023-06-25T09:18:43.341Z,3.83
2023-06-25T09:21:11.216Z,4.50
2023-06-25T09:23:38.413Z,4.07
2023-06-25T09:26:10.597Z,4.38
2023-06-25T09:28:47.184Z,4.28
2023-06-25T09:31:16.126Z,4.72
2023-06-25T09:33:50.598Z,4.72
2023-06-25T09:36:36.835Z,4.70
2023-06-25T09:39:05.658Z,4.47
2023-06-25T09:41:35.924Z,4.88
2023-06-25T09:44:05.293Z,4.63
2023-06-25T09:46:33.936Z,4.10
2023-06-25T09:49:01.952Z,4.60
2023-06-25T09:51:34.648Z,4.57
2023-06-25T09:54:06.111Z,4.43
2023-06-25T09:56:37.839Z,5.30
2023-06-25T09:59:05.739Z,5.20
2023-06-25T10:01:33.268Z,4.53
2023-06-25T10:04:00.562Z,4.72
2023-06-25T10:06:28.445Z,4.82
2023-06-25T10:08:56.544Z,5.15
2023-06-25T10:11:25.853Z,5.30
2023-06-25T10:13:54.755Z,4.88
2023-06-25T10:16:34.177Z,4.38
2023-06-25T10:19:05.375Z,4.25
2023-06-25T10:21:32.609Z,4.13
2023-06-25T10:24:01.836Z,4.40
2023-06-25T10:26:30.565Z,4.13
2023-06-25T10:29:02.081Z,4.32
2023-06-25T10:31:37.151Z,4.15
2023-06-25T10:34:06.124Z,3.92
2023-06-25T10:36:33.337Z,4.03
2023-06-25T10:39:01.006Z,4.05
2023-06-25T10:41:29.100Z,3.88
2023-06-25T10:43:57.001Z,4.20
2023-06-25T10:46:35.879Z,4.25
2023-06-25T10:49:04.647Z,4.07
2023-06-25T10:51:34.198Z,3.78
2023-06-25T10:54:01.324Z,3.65
2023-06-25T10:56:28.525Z,3.92
2023-06-25T10:58:56.139Z,4.15
2023-06-25T11:01:23.487Z,4.38
2023-06-25T11:03:52.199Z,4.45
2023-06-25T11:06:19.531Z,4.40
2023-06-25T11:08:46.741Z,4.05
2023-06-25T11:11:13.856Z,4.45
2023-06-25T11:13:40.998Z,4.40
2023-06-25T11:16:08.154Z,4.20
2023-06-25T11:18:35.275Z,4.40
2023-06-25T11:21:05.321Z,4.25
2023-06-25T11:23:32.897Z,4.90
2023-06-25T11:26:03.392Z,5.13
2023-06-25T11:28:30.752Z,4.40
2023-06-25T11:30:58.928Z,4.30
2023-06-25T11:33:26.132Z,4.10
2023-06-25T11:35:54.618Z,4.60
2023-06-25T11:38:29.924Z,4.38
2023-06-25T11:40:57.890Z,5.00
2023-06-25T11:43:25.619Z,4.53
2023-06-25T11:45:52.940Z,4.60
2023-06-25T11:48:20.441Z,4.40
2023-06-25T11:50:50.482Z,4.80
2023-06-25T11:53:17.891Z,4.10
2023-06-25T11:55:46.783Z,4.50
2023-06-25T11:58:13.989Z,4.00
2023-06-25T12:00:43.254Z,4.63
2023-06-25T12:03:12.389Z,3.97
2023-06-25T12:05:39.823Z,3.90
2023-06-25T12:08:07.284Z,4.75
2023-06-25T12:10:34.490Z,4.68
2023-06-25T12:13:02.966Z,4.85
2023-06-25T12:15:30.083Z,4.22
2023-06-25T12:17:57.267Z,4.63
2023-06-25T12:20:24.421Z,5.38
2023-06-25T12:22:51.541Z,8.48
2023-06-25T12:25:18.674Z,6.90
2023-06-25T12:27:45.845Z,5.38
2023-06-25T12:30:14.764Z,10.20
2023-06-25T12:32:42.026Z,9.55
2023-06-25T12:35:09.581Z,6.85
2023-06-25T12:37:36.735Z,7.43
2023-06-25T12:40:04.268Z,7.68
2023-06-25T12:42:31.538Z,8.30
2023-06-25T12:44:58.656Z,7.93
2023-06-25T12:47:27.516Z,11.25
2023-06-25T12:49:54.737Z,9.98
2023-06-25T12:52:22.038Z,9.88
2023-06-25T12:54:49.241Z,9.00
2023-06-25T12:57:16.351Z,7.40
2023-06-25T12:59:43.650Z,7.45
2023-06-25T13:02:10.861Z,6.22
2023-06-25T13:04:39.555Z,6.10
2023-06-25T13:07:06.740Z,5.32
2023-06-25T13:09:34.070Z,5.10
2023-06-25T13:12:01.212Z,5.38
2023-06-25T13:14:28.389Z,4.43
2023-06-25T13:16:55.549Z,4.57
2023-06-25T13:19:22.980Z,4.80
2023-06-25T13:21:51.620Z,5.07
2023-06-25T13:24:18.937Z,4.20
2023-06-25T13:26:47.743Z,4.60
2023-06-25T13:29:14.850Z,3.85
2023-06-25T13:31:42.014Z,3.67
2023-06-25T13:34:09.136Z,3.88
2023-06-25T13:36:36.262Z,4.05
2023-06-25T13:39:04.767Z,4.78
2023-06-25T13:41:31.995Z,4.10
2023-06-25T13:43:59.121Z,4.68
2023-06-25T13:46:26.356Z,4.38
2023-06-25T13:48:53.511Z,4.05
2023-06-25T13:51:20.682Z,4.10
2023-06-25T13:53:48.742Z,4.28
2023-06-25T13:56:17.350Z,3.72
2023-06-25T13:58:44.490Z,4.10
2023-06-25T14:01:11.822Z,4.10
2023-06-25T14:03:39.017Z,4.20
2023-06-25T14:06:06.240Z,4.15
2023-06-25T14:08:33.492Z,4.32
2023-06-25T14:11:00.877Z,4.15
2023-06-25T14:13:29.342Z,4.05
2023-06-25T14:16:10.588Z,4.22
2023-06-25T14:18:41.911Z,3.70
2023-06-25T14:21:09.113Z,4.00
2023-06-25T14:23:36.233Z,4.20
2023-06-25T14:26:04.206Z,4.20
2023-06-25T14:28:34.061Z,4.40
2023-06-25T14:31:01.739Z,4.50
2023-06-25T14:33:28.904Z,3.80
2023-06-25T14:35:56.110Z,3.65
2023-06-25T14:38:23.270Z,4.30
2023-06-25T14:40:50.515Z,3.92
2023-06-25T14:43:17.679Z,4.10
2023-06-25T14:45:46.287Z,3.85
2023-06-25T14:48:13.493Z,4.03
2023-06-25T14:50:40.658Z,4.25
2023-06-25T14:53:08.089Z,3.92
2023-06-25T14:55:40.960Z,4.20
2023-06-25T15:00:36.197Z,4.18
2023-06-25T15:03:04.863Z,3.95
2023-06-25T15:05:32.360Z,3.83
2023-06-25T15:07:59.458Z,3.83
2023-06-25T15:10:26.643Z,4.03
2023-06-25T15:12:53.813Z,3.70
2023-06-25T15:15:20.944Z,3.90
2023-06-25T15:17:48.172Z,4.15
2023-06-25T15:20:16.804Z,3.97
2023-06-25T15:22:44.039Z,3.75
2023-06-25T15:25:11.399Z,3.97
2023-06-25T15:27:38.687Z,4.55
2023-06-25T15:30:06.639Z,4.15
2023-06-25T15:32:35.587Z,4.20
2023-06-25T15:35:05.772Z,4.13
2023-06-25T15:37:34.334Z,4.10
2023-06-25T15:40:01.469Z,3.90
2023-06-25T15:42:28.645Z,4.45
2023-06-25T15:44:55.805Z,3.97
2023-06-25T15:47:23.098Z,4.00
2023-06-25T15:49:50.306Z,3.65
2023-06-25T15:52:17.414Z,4.22
2023-06-25T15:54:47.349Z,4.32
2023-06-25T15:57:14.496Z,3.67
2023-06-25T15:59:41.620Z,4.05
2023-06-25T16:02:08.890Z,3.95
2023-06-25T16:04:36.053Z,3.80
2023-06-25T16:07:03.273Z,4.22
2023-06-25T16:09:30.391Z,3.78
2023-06-25T16:11:58.912Z,3.95
2023-06-25T16:14:27.237Z,3.95
2023-06-25T16:16:55.937Z,4.20
2023-06-25T16:19:51.585Z,3.60
2023-06-25T16:22:10.467Z,3.90
2023-06-25T16:24:37.594Z,3.50
2023-06-25T16:27:06.738Z,3.90
2023-06-25T16:29:33.872Z,4.10
2023-06-25T16:32:01.006Z,3.60
2023-06-25T16:34:28.113Z,4.00
2023-06-25T16:36:55.654Z,3.85
2023-06-25T16:39:22.992Z,4.25
2023-06-25T16:41:50.118Z,3.83
2023-06-25T16:44:18.595Z,3.65
2023-06-25T16:46:45.778Z,3.90
2023-06-25T16:49:12.945Z,3.90
2023-06-25T16:51:40.071Z,3.60
2023-06-25T16:54:07.224Z,4.07
2023-06-25T16:56:35.093Z,3.90
2023-06-25T16:59:02.306Z,3.90
2023-06-25T17:01:30.867Z,4.00
2023-06-25T17:03:58.067Z,3.53
2023-06-25T17:06:25.217Z,3.58
2023-06-25T17:08:52.372Z,3.72
2023-06-25T17:11:19.497Z,4.00
2023-06-25T17:13:46.656Z,4.10
2023-06-25T17:16:13.876Z,3.80
2023-06-25T17:18:42.348Z,4.20
2023-06-25T17:21:09.497Z,3.95
2023-06-25T17:23:36.666Z,3.92
2023-06-25T17:26:03.817Z,3.80
2023-06-25T17:28:30.984Z,3.88
2023-06-25T17:30:58.157Z,3.63
2023-06-25T17:33:25.313Z,3.80
2023-06-25T17:35:53.809Z,4.05
2023-06-25T17:38:20.948Z,4.05
2023-06-25T17:40:48.131Z,3.72
2023-06-25T17:43:15.244Z,3.75
2023-06-25T17:45:42.427Z,3.53
2023-06-25T17:48:09.587Z,3.85
2023-06-25T17:50:36.701Z,4.10
2023-06-25T17:53:05.279Z,3.65
2023-06-25T17:55:32.519Z,3.90
2023-06-25T17:57:59.627Z,4.00
2023-06-25T18:00:26.762Z,3.50
2023-06-25T18:02:53.953Z,3.80
2023-06-25T18:05:23.070Z,3.90
2023-06-25T18:07:50.253Z,3.88
2023-06-25T18:10:18.817Z,3.63
2023-06-25T18:12:45.995Z,3.75
2023-06-25T18:15:13.199Z,3.50
2023-06-25T18:17:40.778Z,3.35
2023-06-25T18:20:09.597Z,3.70
2023-06-25T18:22:37.228Z,3.70
2023-06-25T18:25:04.770Z,3.40
2023-06-25T18:27:33.227Z,3.50
2023-06-25T18:30:00.486Z,3.38
2023-06-25T18:32:27.737Z,3.28
2023-06-25T18:34:54.917Z,3.28
2023-06-25T18:37:22.054Z,3.80
2023-06-25T18:39:49.179Z,3.80
2023-06-25T18:42:16.278Z,3.58
2023-06-25T18:44:44.792Z,3.78
2023-06-25T18:47:11.933Z,3.90
2023-06-25T18:49:39.272Z,3.65
2023-06-25T18:52:07.746Z,3.28
2023-06-25T18:54:34.885Z,3.50
2023-06-25T18:57:02.010Z,4.00
2023-06-25T18:59:29.182Z,3.38
2023-06-25T19:01:57.740Z,3.35
2023-06-25T19:04:25.338Z,3.60
2023-06-25T19:06:52.626Z,3.50
2023-06-25T19:09:19.818Z,3.42
2023-06-25T19:11:46.953Z,3.35
2023-06-25T19:14:14.134Z,3.33
2023-06-25T19:16:41.298Z,3.38
2023-06-25T19:19:09.835Z,3.38
2023-06-25T19:21:36.993Z,3.40
2023-06-25T19:24:04.466Z,3.47
2023-06-25T19:26:31.656Z,3.70
2023-06-25T19:28:58.849Z,3.65
2023-06-25T19:31:26.174Z,3.50
2023-06-25T19:33:53.565Z,3.40
2023-06-25T19:36:22.504Z,3.25
2023-06-25T19:38:49.877Z,3.60
2023-06-25T19:41:17.308Z,3.55
2023-06-25T19:43:44.472Z,3.38
2023-06-25T19:46:11.860Z,3.78
2023-06-25T19:48:39.248Z,3.55
2023-06-25T19:51:06.503Z,3.63
2023-06-25T19:53:35.341Z,3.65
2023-06-25T19:56:02.841Z,3.70
2023-06-25T19:58:30.314Z,3.90
2023-06-25T20:00:57.677Z,3.70
2023-06-25T20:03:24.823Z,3.78
2023-06-25T20:05:52.178Z,3.60
2023-06-25T20:08:19.323Z,3.80
2023-06-25T20:10:48.162Z,3.70
2023-06-25T20:13:15.402Z,3.83
2023-06-25T20:15:42.554Z,3.70
2023-06-25T20:18:09.781Z,3.90
2023-06-25T20:20:37.431Z,3.65
2023-06-25T20:23:04.820Z,3.55
2023-06-25T20:25:32.003Z,3.55
2023-06-25T20:28:00.569Z,4.00
2023-06-25T20:30:27.693Z,3.67
2023-06-25T20:32:54.863Z,3.88
2023-06-25T20:35:22.605Z,3.90
2023-06-25T20:37:49.774Z,3.60
2023-06-25T20:40:17.047Z,3.38
2023-06-25T20:42:44.229Z,3.60
2023-06-25T20:45:13.051Z,3.80
2023-06-25T20:47:40.643Z,3.83
2023-06-25T20:50:08.419Z,3.83
2023-06-25T20:52:36.136Z,4.10
2023-06-25T20:55:03.270Z,3.78
2023-06-25T20:57:30.465Z,3.83
2023-06-25T20:59:57.606Z,3.70
2023-06-25T21:02:26.223Z,4.00
2023-06-25T21:04:53.673Z,3.47
2023-06-25T21:07:20.829Z,3.50
2023-06-25T21:09:48.014Z,3.97
2023-06-25T21:12:15.352Z,3.95
2023-06-25T21:14:42.487Z,3.40
2023-06-25T21:17:09.647Z,4.15
2023-06-25T21:19:38.175Z,4.07
2023-06-25T21:22:05.696Z,3.90
2023-06-25T21:24:32.854Z,3.75
2023-06-25T21:27:00.007Z,3.72
2023-06-25T21:29:27.144Z,3.90
2023-06-25T21:31:54.272Z,3.92
2023-06-25T21:34:21.466Z,3.78
2023-06-25T21:36:49.995Z,3.67
2023-06-25T21:39:17.139Z,3.80
2023-06-25T21:41:44.347Z,3.67
2023-06-25T21:44:11.493Z,4.30
2023-06-25T21:46:38.657Z,3.80
2023-06-25T21:49:05.842Z,3.75
2023-06-25T21:51:32.972Z,3.80
2023-06-25T21:54:01.536Z,3.50
2023-06-25T21:56:28.912Z,4.00
2023-06-25T21:58:56.050Z,3.92
2023-06-25T22:01:23.523Z,3.70
2023-06-25T22:03:50.828Z,3.95
2023-06-25T22:06:18.006Z,4.13
2023-06-25T22:08:45.176Z,3.60
2023-06-25T22:11:13.736Z,3.55
2023-06-25T22:13:40.967Z,3.50
2023-06-25T22:16:08.278Z,3.67
2023-06-25T22:18:35.453Z,3.63
2023-06-25T22:21:02.589Z,3.80
2023-06-25T22:23:29.767Z,3.67
2023-06-25T22:25:56.926Z,3.55
2023-06-25T22:28:25.645Z,3.72
2023-06-25T22:30:52.898Z,3.55
2023-06-25T22:33:20.151Z,3.58
2023-06-25T22:35:47.333Z,3.63
2023-06-25T22:38:14.542Z,3.78
2023-06-25T22:40:43.234Z,3.85
2023-06-25T22:43:10.408Z,3.60
2023-06-25T22:45:38.902Z,3.80
2023-06-25T22:48:06.349Z,3.72
2023-06-25T22:50:33.574Z,3.63
2023-06-25T22:53:00.764Z,3.15
2023-06-25T22:55:27.907Z,3.38
2023-06-25T22:57:55.072Z,3.60
2023-06-25T23:00:22.231Z,3.40
2023-06-25T23:02:50.862Z,3.03
2023-06-25T23:05:18.066Z,3.47
2023-06-25T23:07:45.221Z,3.55
2023-06-25T23:10:12.405Z,3.38
2023-06-25T23:12:39.554Z,3.20
2023-06-25T23:15:07.579Z,3.58
2023-06-25T23:17:34.861Z,3.50
2023-06-25T23:20:03.735Z,3.63
2023-06-25T23:22:30.861Z,3.30
2023-06-25T23:24:58.233Z,3.45
2023-06-25T23:27:25.377Z,3.22
2023-06-25T23:29:52.701Z,3.72
2023-06-25T23:32:19.883Z,3.45
2023-06-25T23:34:47.018Z,3.55
2023-06-25T23:37:15.749Z,3.08
2023-06-25T23:39:42.988Z,3.72
2023-06-25T23:42:10.124Z,3.60
2023-06-25T23:44:37.280Z,3.55
2023-06-25T23:47:04.999Z,3.30
2023-06-25T23:49:32.128Z,2.90
2023-06-25T23:51:59.721Z,3.38
2023-06-25T23:54:28.253Z,3.70
2023-06-25T23:56:55.383Z,3.85
2023-06-25T23:59:22.723Z,3.03
